Time;durP1;ratioP1;P1;durP2;ratioP2;P2;SDS_P1;SDS_P2;PMS_P1;PMS_P2;Temp;Humidity;BMP_temperature;BMP_pressure;BME280_temperature;BME280_humidity;BME280_pressure;Samples;Min_cycle;Max_cycle;Signal;HPM_P1;HPM_P2
2022/12/05 00:01:45;;;;;;;;;;;;;;;;;;7366145;19;2067;-68
2022/12/05 00:04:13;;;;;;;;;;;;;;;;;;7367737;19;1841;-69
2022/12/05 00:06:42;;;;;;;;;;;;;;;;;;7362681;19;1310;-69
2022/12/05 00:09:10;;;;;;;;;;;;;;;;;;7365254;19;858;-69
2022/12/05 00:11:38;;;;;;;;;;;;;;;;;;7367469;19;1812;-69
2022/12/05 00:14:07;;;;;;;;;;;;;;;;;;7366152;19;810;-68
2022/12/05 00:16:35;;;;;;;;;;;;;;;;;;7362767;19;1325;-69
2022/12/05 00:19:03;;;;;;;;;;;;;;;;;;7363104;19;743;-69
2022/12/05 00:21:31;;;;;;;;;;;;;;;;;;7366274;19;1297;-70
2022/12/05 00:23:59;;;;;;;;;;;;;;;;;;7363115;19;1864;-69
2022/12/05 00:26:28;;;;;;;;;;;;;;;;;;7362586;19;1802;-69
2022/12/05 00:28:56;;;;;;;;;;;;;;;;;;7368737;19;2117;-69
2022/12/05 00:31:24;;;;;;;;;;;;;;;;;;7364939;19;823;-69
2022/12/05 00:33:52;;;;;;;;;;;;;;;;;;7364915;19;804;-71
2022/12/05 00:36:20;;;;;;;;;;;;;;;;;;7362184;19;1291;-73
2022/12/05 00:38:49;;;;;;;;;;;;;;;;;;7363618;19;891;-69
2022/12/05 00:41:17;;;;;;;;;;;;;;;;;;7364099;19;866;-70
2022/12/05 00:43:45;;;;;;;;;;;;;;;;;;7361363;19;1850;-69
2022/12/05 00:46:13;;;;;;;;;;;;;;;;;;7363262;19;1271;-74
2022/12/05 00:48:41;;;;;;;;;;;;;;;;;;7368774;19;1755;-73
2022/12/05 00:51:09;;;;;;;;;;;;;;;;;;7364748;19;847;-71
2022/12/05 00:53:38;;;;;;;;;;;;;;;;;;7371026;19;823;-71
2022/12/05 00:56:06;;;;;;;;;;;;;;;;;;7369606;19;1275;-69
2022/12/05 00:58:34;;;;;;;;;;;;;;;;;;7371147;19;830;-71
2022/12/05 01:01:02;;;;;;;;;;;;;;;;;;7370680;19;1343;-71
2022/12/05 01:03:30;;;;;;;;;;;;;;;;;;7371212;19;1861;-72
2022/12/05 01:05:58;;;;;;;;;;;;;;;;;;7370251;19;1358;-71
2022/12/05 01:08:27;;;;;;;;;;;;;;;;;;7372997;19;1834;-69
2022/12/05 01:10:55;;;;;;;;;;;;;;;;;;7370641;19;807;-71
2022/12/05 01:13:23;;;;;;;;;;;;;;;;;;7369650;19;1805;-69
2022/12/05 01:15:51;;;;;;;;;;;;;;;;;;7371947;19;1746;-68
2022/12/05 01:18:19;;;;;;;;;;;;;;;;;;7373349;19;1777;-68
2022/12/05 01:20:47;;;;;;;;;;;;;;;;;;7371414;19;1814;-68
2022/12/05 01:23:15;;;;;;;;;;;;;;;;;;7370021;19;1842;-68
2022/12/05 01:25:43;;;;;;;;;;;;;;;;;;7369109;19;1255;-68
2022/12/05 01:28:12;;;;;;;;;;;;;;;;;;7370197;19;1690;-68
2022/12/05 01:30:40;;;;;;;;;;;;;;;;;;7369021;19;827;-68
2022/12/05 01:33:09;;;;;;;;;;;;;;;;;;7369953;19;804;-68
2022/12/05 01:35:37;;;;;;;;;;;;;;;;;;7369933;19;1350;-68
2022/12/05 01:38:05;;;;;;;;;;;;;;;;;;7383335;19;716;-68
2022/12/05 01:40:34;;;;;;;;;;;;;;;;;;7384271;19;870;-68
2022/12/05 01:43:03;;;;;;;;;;;;;;;;;;7381790;19;2196;-69
2022/12/05 01:45:31;;;;;;;;;;;;;;;;;;7378346;19;1353;-68
2022/12/05 01:47:59;;;;;;;;;;;;;;;;;;7378488;19;838;-68
2022/12/05 01:50:27;;;;;;;;;;;;;;;;;;7373659;19;827;-68
2022/12/05 01:52:56;;;;;;;;;;;;;;;;;;7370645;19;947;-69
2022/12/05 01:55:24;;;;;;;;;;;;;;;;;;7369645;19;1228;-68
2022/12/05 01:57:52;;;;;;;;;;;;;;;;;;7369917;19;782;-68
2022/12/05 02:00:20;;;;;;;;;;;;;;;;;;7369518;19;907;-68
2022/12/05 02:02:48;;;;;;;;;;;;;;;;;;7368291;19;1854;-68
2022/12/05 02:05:16;;;;;;;;;;;;;;;;;;7372050;19;1829;-68
2022/12/05 02:07:45;;;;;;;;;;;;;;;;;;7373017;19;1875;-67
2022/12/05 02:10:13;;;;;;;;;;;;;;;;;;7368533;19;858;-68
2022/12/05 02:12:41;;;;;;;;;;;;;;;;;;7369488;19;866;-68
2022/12/05 02:15:09;;;;;;;;;;;;;;;;;;7368602;19;1247;-68
2022/12/05 02:17:37;;;;;;;;;;;;;;;;;;7369651;19;814;-68
2022/12/05 02:20:05;;;;;;;;;;;;;;;;;;7369470;19;911;-68
2022/12/05 02:22:33;;;;;;;;;;;;;;;;;;7368878;19;815;-68
2022/12/05 02:25:02;;;;;;;;;;;;;;;;;;7367765;19;1860;-68
2022/12/05 02:27:30;;;;;;;;;;;;;;;;;;7368883;19;811;-68
2022/12/05 02:29:58;;;;;;;;;;;;;;;;;;7368095;19;1888;-68
2022/12/05 02:32:26;;;;;;;;;;;;;;;;;;7371788;19;1828;-68
2022/12/05 02:34:54;;;;;;;;;;;;;;;;;;7367563;19;1303;-68
2022/12/05 02:37:22;;;;;;;;;;;;;;;;;;7368074;19;789;-69
2022/12/05 02:39:51;;;;;;;;;;;;;;;;;;7367550;19;835;-68
2022/12/05 02:42:19;;;;;;;;;;;;;;;;;;7368359;19;790;-67
2022/12/05 02:44:47;;;;;;;;;;;;;;;;;;7366333;19;2078;-69
2022/12/05 02:47:15;;;;;;;;;;;;;;;;;;7368644;19;741;-68
2022/12/05 02:49:43;;;;;;;;;;;;;;;;;;7368015;19;791;-68
2022/12/05 02:52:11;;;;;;;;;;;;;;;;;;7368444;19;1850;-68
2022/12/05 02:54:39;;;;;;;;;;;;;;;;;;7367888;19;1312;-68
2022/12/05 02:57:07;;;;;;;;;;;;;;;;;;7368513;19;810;-68
2022/12/05 02:59:36;;;;;;;;;;;;;;;;;;7367195;19;819;-69
2022/12/05 03:02:04;;;;;;;;;;;;;;;;;;7367713;19;932;-68
2022/12/05 03:04:32;;;;;;;;;;;;;;;;;;7365356;19;1846;-68
2022/12/05 03:07:00;;;;;;;;;;;;;;;;;;7372254;19;1658;-69
2022/12/05 03:09:28;;;;;;;;;;;;;;;;;;7366970;19;779;-68
2022/12/05 03:11:56;;;;;;;;;;;;;;;;;;7367598;19;810;-69
2022/12/05 03:14:25;;;;;;;;;;;;;;;;;;7364821;19;823;-69
2022/12/05 03:16:53;;;;;;;;;;;;;;;;;;7368062;19;844;-69
2022/12/05 03:19:21;;;;;;;;;;;;;;;;;;7366626;19;842;-69
2022/12/05 03:21:49;;;;;;;;;;;;;;;;;;7367952;19;889;-68
2022/12/05 03:24:17;;;;;;;;;;;;;;;;;;7365881;19;1849;-69
2022/12/05 03:26:45;;;;;;;;;;;;;;;;;;7364175;19;1259;-69
2022/12/05 03:29:13;;;;;;;;;;;;;;;;;;7365802;19;843;-69
2022/12/05 03:31:42;;;;;;;;;;;;;;;;;;7367277;19;823;-70
2022/12/05 03:34:10;;;;;;;;;;;;;;;;;;7367255;19;862;-68
2022/12/05 03:36:38;;;;;;;;;;;;;;;;;;7364687;19;1306;-68
2022/12/05 03:39:06;;;;;;;;;;;;;;;;;;7367348;19;767;-68
2022/12/05 03:41:35;;;;;;;;;;;;;;;;;;7369960;19;2107;-68
2022/12/05 03:44:03;;;;;;;;;;;;;;;;;;7365702;19;1852;-68
2022/12/05 03:46:31;;;;;;;;;;;;;;;;;;7364117;19;1298;-68
2022/12/05 03:48:59;;;;;;;;;;;;;;;;;;7366060;19;850;-67
2022/12/05 03:51:27;;;;;;;;;;;;;;;;;;7366092;19;811;-70
2022/12/05 03:53:55;;;;;;;;;;;;;;;;;;7366811;19;1817;-68
2022/12/05 03:56:23;;;;;;;;;;;;;;;;;;7364059;19;1282;-68
2022/12/05 03:58:52;;;;;;;;;;;;;;;;;;7364497;19;961;-68
2022/12/05 04:01:20;;;;;;;;;;;;;;;;;;7368675;19;1780;-68
2022/12/05 04:03:50;;;;;;;;;;;;;;;;;;7365499;19;1846;-68
2022/12/05 04:06:18;;;;;;;;;;;;;;;;;;7363350;19;1263;-68
2022/12/05 04:08:46;;;;;;;;;;;;;;;;;;7364709;19;800;-69
2022/12/05 04:11:14;;;;;;;;;;;;;;;;;;7365359;19;881;-69
2022/12/05 04:13:43;;;;;;;;;;;;;;;;;;7365566;19;777;-69
2022/12/05 04:18:51;;;;;;;;;;;;;;;;;;7364912;19;786;-68
2022/12/05 04:26:41;;;;;;;;;;;;;;;;;;7367314;19;1271;-69
2022/12/05 04:29:09;;;;;;;;;;;;;;;;;;7371459;19;883;-69
2022/12/05 04:31:37;;;;;;;;;;;;;;;;;;7371626;19;823;-69
2022/12/05 04:34:06;;;;;;;;;;;;;;;;;;7372371;19;842;-68
2022/12/05 04:36:34;;;;;;;;;;;;;;;;;;7369967;19;1271;-68
2022/12/05 04:39:02;;;;;;;;;;;;;;;;;;7371552;19;788;-69
2022/12/05 04:41:30;;;;;;;;;;;;;;;;;;7372123;19;1836;-68
2022/12/05 04:43:58;;;;;;;;;;;;;;;;;;7370787;19;1837;-69
2022/12/05 04:46:26;;;;;;;;;;;;;;;;;;7369579;19;1306;-69
2022/12/05 04:48:55;;;;;;;;;;;;;;;;;;7372404;19;1863;-69
2022/12/05 04:51:23;;;;;;;;;;;;;;;;;;7371715;19;851;-69
2022/12/05 04:53:51;;;;;;;;;;;;;;;;;;7372023;19;811;-69
2022/12/05 04:56:19;;;;;;;;;;;;;;;;;;7369604;19;1250;-69
2022/12/05 04:58:47;;;;;;;;;;;;;;;;;;7370313;19;787;-69
2022/12/05 05:01:15;;;;;;;;;;;;;;;;;;7369663;19;1805;-69
2022/12/05 05:03:43;;;;;;;;;;;;;;;;;;7374797;19;1849;-68
2022/12/05 05:06:12;;;;;;;;;;;;;;;;;;7368720;19;1275;-69
2022/12/05 05:08:40;;;;;;;;;;;;;;;;;;7369154;19;834;-69
2022/12/05 05:11:08;;;;;;;;;;;;;;;;;;7370333;19;810;-68
2022/12/05 05:13:36;;;;;;;;;;;;;;;;;;7371654;19;832;-68
2022/12/05 05:16:04;;;;;;;;;;;;;;;;;;7369529;19;1356;-69
2022/12/05 05:18:32;;;;;;;;;;;;;;;;;;7370943;19;806;-68
2022/12/05 05:21:00;;;;;;;;;;;;;;;;;;7370535;19;870;-69
2022/12/05 05:23:29;;;;;;;;;;;;;;;;;;7374482;19;1788;-69
2022/12/05 05:25:57;;;;;;;;;;;;;;;;;;7367860;19;1342;-68
2022/12/05 05:28:25;;;;;;;;;;;;;;;;;;7373314;19;1772;-68
2022/12/05 05:30:53;;;;;;;;;;;;;;;;;;7371077;19;775;-69
2022/12/05 05:33:21;;;;;;;;;;;;;;;;;;7370418;19;807;-69
2022/12/05 05:35:49;;;;;;;;;;;;;;;;;;7369354;19;1313;-69
2022/12/05 05:38:18;;;;;;;;;;;;;;;;;;7366409;19;823;-69
2022/12/05 05:40:46;;;;;;;;;;;;;;;;;;7370591;19;863;-69
2022/12/05 05:43:14;;;;;;;;;;;;;;;;;;7371695;19;2056;-69
2022/12/05 05:45:42;;;;;;;;;;;;;;;;;;7366400;19;1852;-69
2022/12/05 05:48:10;;;;;;;;;;;;;;;;;;7368090;19;952;-69
2022/12/05 05:50:39;;;;;;;;;;;;;;;;;;7368847;19;820;-69
2022/12/05 05:53:12;;;;;;;;;;;;;;;;;;7370054;19;691;-68
2022/12/05 05:55:40;;;;;;;;;;;;;;;;;;7367235;19;2221;-69
2022/12/05 05:58:08;;;;;;;;;;;;;;;;;;7368815;19;828;-69
2022/12/05 06:00:36;;;;;;;;;;;;;;;;;;7369541;19;855;-69
2022/12/05 06:03:04;;;;;;;;;;;;;;;;;;7370084;19;1809;-69
2022/12/05 06:05:33;;;;;;;;;;;;;;;;;;7367201;19;1853;-68
2022/12/05 06:08:01;;;;;;;;;;;;;;;;;;7367894;19;814;-68
2022/12/05 06:10:29;;;;;;;;;;;;;;;;;;7369204;19;857;-68
2022/12/05 06:12:57;;;;;;;;;;;;;;;;;;7368894;19;865;-67
2022/12/05 06:15:26;;;;;;;;;;;;;;;;;;7367852;19;1282;-68
2022/12/05 06:17:54;;;;;;;;;;;;;;;;;;7368239;19;879;-68
2022/12/05 06:20:22;;;;;;;;;;;;;;;;;;7368237;19;838;-67
2022/12/05 06:22:50;;;;;;;;;;;;;;;;;;7368162;19;831;-68
2022/12/05 06:25:18;;;;;;;;;;;;;;;;;;7370152;19;1833;-68
2022/12/05 06:27:46;;;;;;;;;;;;;;;;;;7368170;19;875;-68
2022/12/05 06:30:14;;;;;;;;;;;;;;;;;;7369027;19;842;-68
2022/12/05 06:32:43;;;;;;;;;;;;;;;;;;7368640;19;798;-68
2022/12/05 06:35:14;;;;;;;;;;;;;;;;;;7367631;19;1338;-68
2022/12/05 06:37:42;;;;;;;;;;;;;;;;;;7366698;19;730;-68
2022/12/05 06:40:10;;;;;;;;;;;;;;;;;;7368737;19;819;-68
2022/12/05 06:42:38;;;;;;;;;;;;;;;;;;7370450;19;1786;-68
2022/12/05 06:45:07;;;;;;;;;;;;;;;;;;7371062;19;1842;-67
2022/12/05 06:47:35;;;;;;;;;;;;;;;;;;7369005;19;1838;-68
2022/12/05 06:50:03;;;;;;;;;;;;;;;;;;7368856;19;2163;-68
2022/12/05 06:52:32;;;;;;;;;;;;;;;;;;7368730;19;763;-68
2022/12/05 06:55:00;;;;;;;;;;;;;;;;;;7368282;19;1275;-68
2022/12/05 06:57:29;;;;;;;;;;;;;;;;;;7368438;19;863;-67
2022/12/05 07:01:37;;;;;;;;;;;;;;;;;;7371647;19;1844;-67
2022/12/05 07:02:42;;;;;;;;;;;;;;;;;;7367110;19;1050;-68
2022/12/05 07:05:11;;;;;;;;;;;;;;;;;;7367524;19;1847;-67
2022/12/05 07:07:39;;;;;;;;;;;;;;;;;;7367621;19;874;-67
2022/12/05 07:10:07;;;;;;;;;;;;;;;;;;7368060;19;803;-68
2022/12/05 07:12:35;;;;;;;;;;;;;;;;;;7368306;19;775;-68
2022/12/05 07:15:03;;;;;;;;;;;;;;;;;;7367641;19;1317;-68
2022/12/05 07:17:31;;;;;;;;;;;;;;;;;;7368962;19;770;-67
2022/12/05 07:19:59;;;;;;;;;;;;;;;;;;7370363;19;1763;-68
2022/12/05 07:22:28;;;;;;;;;;;;;;;;;;7369558;19;1781;-68
2022/12/05 07:24:56;;;;;;;;;;;;;;;;;;7365838;19;1844;-68
2022/12/05 07:27:24;;;;;;;;;;;;;;;;;;7366985;19;777;-68
2022/12/05 07:29:52;;;;;;;;;;;;;;;;;;7366917;19;861;-68
2022/12/05 07:32:20;;;;;;;;;;;;;;;;;;7367923;19;788;-67
2022/12/05 07:34:48;;;;;;;;;;;;;;;;;;7367028;19;1287;-67
2022/12/05 07:37:17;;;;;;;;;;;;;;;;;;7367826;19;808;-67
2022/12/05 07:39:45;;;;;;;;;;;;;;;;;;7368194;19;2077;-68
2022/12/05 07:42:13;;;;;;;;;;;;;;;;;;7368656;19;767;-68
2022/12/05 07:44:41;;;;;;;;;;;;;;;;;;7366397;19;1861;-67
2022/12/05 07:47:09;;;;;;;;;;;;;;;;;;7368233;19;780;-68
2022/12/05 07:49:37;;;;;;;;;;;;;;;;;;7367977;19;866;-67
2022/12/05 07:52:05;;;;;;;;;;;;;;;;;;7368494;19;1759;-68
2022/12/05 07:54:34;;;;;;;;;;;;;;;;;;7368063;19;1255;-68
2022/12/05 07:57:02;;;;;;;;;;;;;;;;;;7368856;19;853;-68
2022/12/05 07:59:30;;;;;;;;;;;;;;;;;;7367993;19;1799;-67
2022/12/05 08:01:58;;;;;;;;;;;;;;;;;;7367255;19;867;-68
2022/12/05 08:04:26;;;;;;;;;;;;;;;;;;7368252;19;1853;-68
2022/12/05 08:06:54;;;;;;;;;;;;;;;;;;7369311;19;1400;-69
2022/12/05 08:09:22;;;;;;;;;;;;;;;;;;7373083;19;791;-67
2022/12/05 08:11:51;;;;;;;;;;;;;;;;;;7373032;19;883;-67
2022/12/05 08:14:19;;;;;;;;;;;;;;;;;;7373409;19;879;-67
2022/12/05 08:16:47;;;;;;;;;;;;;;;;;;7370894;19;1256;-68
2022/12/05 08:19:15;;;;;;;;;;;;;;;;;;7369701;19;1847;-67
2022/12/05 08:21:44;;;;;;;;;;;;;;;;;;7366953;19;827;-67
2022/12/05 08:24:12;;;;;;;;;;;;;;;;;;7364974;19;851;-68
2022/12/05 08:26:40;;;;;;;;;;;;;;;;;;7363125;19;1838;-68
2022/12/05 08:29:08;;;;;;;;;;;;;;;;;;7369311;19;1621;-68
2022/12/05 08:31:36;;;;;;;;;;;;;;;;;;7365920;19;849;-69
2022/12/05 08:34:05;;;;;;;;;;;;;;;;;;7366005;19;844;-68
2022/12/05 08:36:33;;;;;;;;;;;;;;;;;;7365171;19;1839;-70
2022/12/05 08:39:01;;;;;;;;;;;;;;;;;;7365008;19;811;-69
2022/12/05 08:41:29;;;;;;;;;;;;;;;;;;7366926;19;882;-69
2022/12/05 08:43:58;;;;;;;;;;;;;;;;;;7368973;19;1880;-68
2022/12/05 08:46:26;;;;;;;;;;;;;;;;;;7363659;19;1837;-68
2022/12/05 08:48:54;;;;;;;;;;;;;;;;;;7365748;19;859;-74
2022/12/05 08:51:22;;;;;;;;;;;;;;;;;;7365896;19;796;-67
2022/12/05 08:53:50;;;;;;;;;;;;;;;;;;7366082;19;857;-68
2022/12/05 08:56:18;;;;;;;;;;;;;;;;;;7362671;19;1338;-67
2022/12/05 08:58:47;;;;;;;;;;;;;;;;;;7366520;19;839;-67
2022/12/05 09:01:15;;;;;;;;;;;;;;;;;;7366416;19;847;-68
2022/12/05 09:03:43;;;;;;;;;;;;;;;;;;7367078;19;2152;-67
2022/12/05 09:06:11;;;;;;;;;;;;;;;;;;7363517;19;1863;-67
2022/12/05 09:08:39;;;;;;;;;;;;;;;;;;7364145;19;846;-67
2022/12/05 09:11:07;;;;;;;;;;;;;;;;;;7362953;19;794;-67
2022/12/05 09:13:36;;;;;;;;;;;;;;;;;;7368875;19;800;-67
2022/12/05 09:16:04;;;;;;;;;;;;;;;;;;7369723;19;1275;-68
2022/12/05 09:18:32;;;;;;;;;;;;;;;;;;7370497;19;837;-68
2022/12/05 09:21:00;;;;;;;;;;;;;;;;;;7370790;19;820;-68
2022/12/05 09:23:28;;;;;;;;;;;;;;;;;;7370814;19;1792;-68
2022/12/05 09:25:57;;;;;;;;;;;;;;;;;;7369857;19;1878;-68
2022/12/05 09:28:25;;;;;;;;;;;;;;;;;;7375256;19;1811;-68
2022/12/05 09:30:53;;;;;;;;;;;;;;;;;;7375308;19;2157;-68
2022/12/05 09:33:21;;;;;;;;;;;;;;;;;;7373939;19;1827;-68
2022/12/05 09:35:49;;;;;;;;;;;;;;;;;;7369547;19;1251;-71
2022/12/05 09:38:17;;;;;;;;;;;;;;;;;;7374290;19;1681;-67
2022/12/05 09:40:45;;;;;;;;;;;;;;;;;;7369648;19;801;-66
2022/12/05 09:43:14;;;;;;;;;;;;;;;;;;7370834;19;886;-66
2022/12/05 09:45:42;;;;;;;;;;;;;;;;;;7369660;19;1842;-70
2022/12/05 09:48:10;;;;;;;;;;;;;;;;;;7370310;19;1596;-71
2022/12/05 09:50:38;;;;;;;;;;;;;;;;;;7370736;19;827;-70
2022/12/05 09:53:06;;;;;;;;;;;;;;;;;;7371592;19;961;-71
2022/12/05 09:55:34;;;;;;;;;;;;;;;;;;7369814;19;1331;-72
2022/12/05 09:58:02;;;;;;;;;;;;;;;;;;7369997;19;854;-70
2022/12/05 10:00:31;;;;;;;;;;;;;;;;;;7370311;19;886;-71
2022/12/05 10:02:59;;;;;;;;;;;;;;;;;;7370084;19;827;-72
2022/12/05 10:05:27;;;;;;;;;;;;;;;;;;7367257;19;1850;-70
2022/12/05 10:07:55;;;;;;;;;;;;;;;;;;7370107;19;793;-72
2022/12/05 10:10:23;;;;;;;;;;;;;;;;;;7371890;19;724;-69
2022/12/05 10:12:51;;;;;;;;;;;;;;;;;;7370611;19;815;-70
2022/12/05 10:15:19;;;;;;;;;;;;;;;;;;7369446;19;1275;-69
2022/12/05 10:17:48;;;;;;;;;;;;;;;;;;7374565;19;1862;-69
2022/12/05 10:20:16;;;;;;;;;;;;;;;;;;7371723;19;1572;-69
2022/12/05 10:22:44;;;;;;;;;;;;;;;;;;7371259;19;818;-71
2022/12/05 10:25:12;;;;;;;;;;;;;;;;;;7368672;19;1838;-69
2022/12/05 10:27:40;;;;;;;;;;;;;;;;;;7374435;19;1802;-70
2022/12/05 10:30:09;;;;;;;;;;;;;;;;;;7371455;19;909;-68
2022/12/05 10:32:37;;;;;;;;;;;;;;;;;;7370513;19;825;-67
2022/12/05 10:35:05;;;;;;;;;;;;;;;;;;7371531;19;1677;-67
2022/12/05 10:37:33;;;;;;;;;;;;;;;;;;7374757;19;2086;-68
2022/12/05 10:40:01;;;;;;;;;;;;;;;;;;7371057;19;1600;-67
2022/12/05 10:42:30;;;;;;;;;;;;;;;;;;7372217;19;1808;-67
2022/12/05 10:44:58;;;;;;;;;;;;;;;;;;7371575;19;1749;-68
2022/12/05 10:47:26;;;;;;;;;;;;;;;;;;7370472;19;1841;-67
2022/12/05 10:49:54;;;;;;;;;;;;;;;;;;7373355;19;1693;-67
2022/12/05 10:52:23;;;;;;;;;;;;;;;;;;7369299;19;787;-68
2022/12/05 10:54:51;;;;;;;;;;;;;;;;;;7370541;19;1787;-68
2022/12/05 10:57:19;;;;;;;;;;;;;;;;;;7371350;19;1780;-68
2022/12/05 10:59:47;;;;;;;;;;;;;;;;;;7371537;19;2113;-69
2022/12/05 11:02:15;;;;;;;;;;;;;;;;;;7372339;19;1829;-67
2022/12/05 11:04:43;;;;;;;;;;;;;;;;;;7372423;19;1900;-70
2022/12/05 11:07:12;;;;;;;;;;;;;;;;;;7368905;19;1851;-68
2022/12/05 11:09:40;;;;;;;;;;;;;;;;;;7370536;19;1795;-67
2022/12/05 11:12:08;;;;;;;;;;;;;;;;;;7372066;19;1648;-68
2022/12/05 11:14:36;;;;;;;;;;;;;;;;;;7374434;19;1644;-69
2022/12/05 11:17:04;;;;;;;;;;;;;;;;;;7372711;19;1860;-69
2022/12/05 11:19:33;;;;;;;;;;;;;;;;;;7370244;19;1782;-70
2022/12/05 11:22:01;;;;;;;;;;;;;;;;;;7372458;19;2075;-69
2022/12/05 11:24:29;;;;;;;;;;;;;;;;;;7372134;19;1768;-70
2022/12/05 11:26:57;;;;;;;;;;;;;;;;;;7369242;19;1865;-69
2022/12/05 11:29:25;;;;;;;;;;;;;;;;;;7369414;19;1804;-70
2022/12/05 11:31:53;;;;;;;;;;;;;;;;;;7371195;19;1811;-69
2022/12/05 11:34:22;;;;;;;;;;;;;;;;;;7369781;19;1718;-67
2022/12/05 11:36:50;;;;;;;;;;;;;;;;;;7367841;19;1574;-69
2022/12/05 11:39:18;;;;;;;;;;;;;;;;;;7367978;19;887;-71
2022/12/05 11:41:46;;;;;;;;;;;;;;;;;;7371118;19;1713;-68
2022/12/05 11:44:14;;;;;;;;;;;;;;;;;;7371694;19;1755;-67
2022/12/05 11:46:44;;;;;;;;;;;;;;;;;;7365812;19;1853;-70
2022/12/05 11:49:13;;;;;;;;;;;;;;;;;;7366715;19;1833;-69
2022/12/05 11:51:41;;;;;;;;;;;;;;;;;;7368002;19;1803;-69
2022/12/05 11:54:12;;;;;;;;;;;;;;;;;;7366715;19;1832;-69
2022/12/05 11:56:40;;;;;;;;;;;;;;;;;;7363355;19;1966;-68
2022/12/05 11:59:08;;;;;;;;;;;;;;;;;;7369732;19;1815;-68
2022/12/05 12:01:36;;;;;;;;;;;;;;;;;;7368523;19;807;-68
2022/12/05 12:04:04;;;;;;;;;;;;;;;;;;7367464;19;771;-69
2022/12/05 12:06:32;;;;;;;;;;;;;;;;;;7363427;19;1861;-69
2022/12/05 12:09:01;;;;;;;;;;;;;;;;;;7366701;19;804;-68
2022/12/05 12:11:29;;;;;;;;;;;;;;;;;;7366805;19;858;-66
2022/12/05 12:13:57;;;;;;;;;;;;;;;;;;7364821;19;1380;-68
2022/12/05 12:16:26;;;;;;;;;;;;;;;;;;7365763;19;1295;-71
2022/12/05 12:18:54;;;;;;;;;;;;;;;;;;7366589;19;937;-67
2022/12/05 12:21:22;;;;;;;;;;;;;;;;;;7372712;19;1749;-66
2022/12/05 12:23:50;;;;;;;;;;;;;;;;;;7367876;19;867;-66
2022/12/05 12:26:18;;;;;;;;;;;;;;;;;;7365787;19;1866;-67
2022/12/05 12:28:47;;;;;;;;;;;;;;;;;;7368083;19;745;-71
2022/12/05 12:31:15;;;;;;;;;;;;;;;;;;7366938;19;1256;-69
2022/12/05 12:33:43;;;;;;;;;;;;;;;;;;7365478;19;1006;-69
2022/12/05 12:36:11;;;;;;;;;;;;;;;;;;7364038;19;1294;-70
2022/12/05 12:38:40;;;;;;;;;;;;;;;;;;7365375;19;874;-69
2022/12/05 12:41:08;;;;;;;;;;;;;;;;;;7366323;19;799;-68
2022/12/05 12:43:36;;;;;;;;;;;;;;;;;;7366290;19;827;-68
2022/12/05 12:46:04;;;;;;;;;;;;;;;;;;7363614;19;1851;-68
2022/12/05 12:48:32;;;;;;;;;;;;;;;;;;7376306;19;1758;-68
2022/12/05 12:51:00;;;;;;;;;;;;;;;;;;7373347;19;767;-68
2022/12/05 12:53:29;;;;;;;;;;;;;;;;;;7373146;19;816;-66
2022/12/05 12:55:59;;;;;;;;;;;;;;;;;;7371467;19;1283;-65
2022/12/05 12:58:27;;;;;;;;;;;;;;;;;;7369863;19;843;-65
2022/12/05 13:00:55;;;;;;;;;;;;;;;;;;7371753;19;811;-67
2022/12/05 13:03:24;;;;;;;;;;;;;;;;;;7373032;19;1316;-65
2022/12/05 13:05:52;;;;;;;;;;;;;;;;;;7370209;19;1838;-66
2022/12/05 13:08:20;;;;;;;;;;;;;;;;;;7369272;19;853;-67
2022/12/05 13:10:48;;;;;;;;;;;;;;;;;;7371763;19;729;-67
2022/12/05 13:13:16;;;;;;;;;;;;;;;;;;7369826;19;1888;-67
2022/12/05 13:15:46;;;;;;;;;;;;;;;;;;7374803;19;2355;-67
2022/12/05 13:18:14;;;;;;;;;;;;;;;;;;7368924;19;1260;-66
2022/12/05 13:20:43;;;;;;;;;;;;;;;;;;7370849;19;1317;-69
2022/12/05 13:23:11;;;;;;;;;;;;;;;;;;7370577;19;851;-67
2022/12/05 13:25:40;;;;;;;;;;;;;;;;;;7365254;19;1350;-66
2022/12/05 13:28:08;;;;;;;;;;;;;;;;;;7370518;19;1846;-65
2022/12/05 13:30:56;;;;;;;;;;;;;;;;;;7368876;19;869;-64
2022/12/05 13:33:24;;;;;;;;;;;;;;;;;;7371371;19;1831;-66
2022/12/05 13:43:54;;;;;;;;;;;;;;;;;;7371431;19;787;-65
2022/12/05 13:46:23;;;;;;;;;;;;;;;;;;7374790;19;1849;-65
2022/12/05 13:48:51;;;;;;;;;;;;;;;;;;7379936;19;836;-65
2022/12/05 13:51:19;;;;;;;;;;;;;;;;;;7380348;19;871;-66
2022/12/05 13:53:47;;;;;;;;;;;;;;;;;;7378262;19;828;-67
2022/12/05 13:56:15;;;;;;;;;;;;;;;;;;7376399;19;1245;-67
2022/12/05 13:58:44;;;;;;;;;;;;;;;;;;7369601;19;790;-67
2022/12/05 14:01:12;;;;;;;;;;;;;;;;;;7370772;19;738;-67
2022/12/05 14:03:40;;;;;;;;;;;;;;;;;;7371349;19;954;-66
2022/12/05 14:06:08;;;;;;;;;;;;;;;;;;7369078;19;1855;-66
2022/12/05 14:08:38;;;;;;;;;;;;;;;;;;7370663;19;775;-66
2022/12/05 14:11:06;;;;;;;;;;;;;;;;;;7369905;19;2186;-65
2022/12/05 14:13:34;;;;;;;;;;;;;;;;;;7369728;19;921;-65
2022/12/05 14:16:02;;;;;;;;;;;;;;;;;;7368737;19;1328;-66
2022/12/05 14:18:30;;;;;;;;;;;;;;;;;;7369780;19;1742;-66
2022/12/05 14:20:58;;;;;;;;;;;;;;;;;;7369511;19;862;-66
2022/12/05 14:23:27;;;;;;;;;;;;;;;;;;7373179;19;1849;-67
2022/12/05 14:25:55;;;;;;;;;;;;;;;;;;7367232;19;1290;-67
2022/12/05 14:28:23;;;;;;;;;;;;;;;;;;7367006;19;1849;-67
2022/12/05 14:30:51;;;;;;;;;;;;;;;;;;7369683;19;827;-67
2022/12/05 14:33:19;;;;;;;;;;;;;;;;;;7374050;19;1761;-66
2022/12/05 14:35:47;;;;;;;;;;;;;;;;;;7368352;19;1415;-64
2022/12/05 14:38:16;;;;;;;;;;;;;;;;;;7368303;19;789;-63
2022/12/05 14:40:44;;;;;;;;;;;;;;;;;;7368653;19;914;-64
2022/12/05 14:43:12;;;;;;;;;;;;;;;;;;7371748;19;1765;-63
2022/12/05 14:45:40;;;;;;;;;;;;;;;;;;7367369;19;1342;-64
2022/12/05 14:48:08;;;;;;;;;;;;;;;;;;7366531;19;1868;-65
2022/12/05 14:50:36;;;;;;;;;;;;;;;;;;7369314;19;756;-65
2022/12/05 14:53:04;;;;;;;;;;;;;;;;;;7371374;19;1833;-67
2022/12/05 14:55:33;;;;;;;;;;;;;;;;;;7367906;19;1373;-67
2022/12/05 14:58:01;;;;;;;;;;;;;;;;;;7368600;19;815;-68
2022/12/05 15:00:29;;;;;;;;;;;;;;;;;;7369144;19;1840;-68
2022/12/05 15:02:57;;;;;;;;;;;;;;;;;;7370145;19;2042;-67
2022/12/05 15:05:26;;;;;;;;;;;;;;;;;;7371773;19;1699;-64
2022/12/05 15:07:54;;;;;;;;;;;;;;;;;;7365469;19;1860;-65
2022/12/05 15:10:22;;;;;;;;;;;;;;;;;;7365623;19;753;-66
2022/12/05 15:12:50;;;;;;;;;;;;;;;;;;7367858;19;1835;-65
2022/12/05 15:15:18;;;;;;;;;;;;;;;;;;7371093;19;1823;-66
2022/12/05 15:17:47;;;;;;;;;;;;;;;;;;7369340;19;1779;-67
2022/12/05 15:20:16;;;;;;;;;;;;;;;;;;7370542;19;1889;-67
2022/12/05 15:22:44;;;;;;;;;;;;;;;;;;7368548;19;834;-68
2022/12/05 15:25:12;;;;;;;;;;;;;;;;;;7367517;19;1278;-69
2022/12/05 15:27:40;;;;;;;;;;;;;;;;;;7367011;19;1869;-65
2022/12/05 15:30:08;;;;;;;;;;;;;;;;;;7368756;19;923;-66
2022/12/05 15:32:37;;;;;;;;;;;;;;;;;;7373523;19;815;-65
2022/12/05 15:35:10;;;;;;;;;;;;;;;;;;7373440;19;1403;-67
2022/12/05 15:37:38;;;;;;;;;;;;;;;;;;7373840;19;821;-64
2022/12/05 15:40:06;;;;;;;;;;;;;;;;;;7376978;19;1838;-66
2022/12/05 15:42:35;;;;;;;;;;;;;;;;;;7370687;19;828;-67
2022/12/05 15:45:03;;;;;;;;;;;;;;;;;;7365987;19;1346;-67
2022/12/05 15:47:31;;;;;;;;;;;;;;;;;;7369114;19;1853;-66
2022/12/05 15:49:59;;;;;;;;;;;;;;;;;;7366820;19;855;-66
2022/12/05 15:52:29;;;;;;;;;;;;;;;;;;7365731;19;815;-67
2022/12/05 15:54:57;;;;;;;;;;;;;;;;;;7366331;19;1287;-68
2022/12/05 15:57:25;;;;;;;;;;;;;;;;;;7367236;19;847;-67
2022/12/05 15:59:53;;;;;;;;;;;;;;;;;;7365870;19;783;-68
2022/12/05 16:02:21;;;;;;;;;;;;;;;;;;7366803;19;832;-67
2022/12/05 16:04:50;;;;;;;;;;;;;;;;;;7366358;19;1228;-68
2022/12/05 16:07:18;;;;;;;;;;;;;;;;;;7364962;19;1842;-66
2022/12/05 16:09:46;;;;;;;;;;;;;;;;;;7365466;19;850;-68
2022/12/05 16:12:14;;;;;;;;;;;;;;;;;;7366173;19;965;-68
2022/12/05 16:14:42;;;;;;;;;;;;;;;;;;7367181;19;1801;-66
2022/12/05 16:17:10;;;;;;;;;;;;;;;;;;7367187;19;1694;-67
2022/12/05 16:19:38;;;;;;;;;;;;;;;;;;7368618;19;1801;-67
2022/12/05 16:22:07;;;;;;;;;;;;;;;;;;7368581;19;767;-67
2022/12/05 16:24:35;;;;;;;;;;;;;;;;;;7372068;19;1282;-68
2022/12/05 16:27:05;;;;;;;;;;;;;;;;;;7371054;19;1850;-67
2022/12/05 16:29:33;;;;;;;;;;;;;;;;;;7370875;19;773;-68
2022/12/05 16:32:01;;;;;;;;;;;;;;;;;;7370718;19;780;-66
2022/12/05 16:34:29;;;;;;;;;;;;;;;;;;7372081;19;824;-66
2022/12/05 16:36:58;;;;;;;;;;;;;;;;;;7370943;19;1353;-67
2022/12/05 16:39:27;;;;;;;;;;;;;;;;;;7371813;19;858;-69
2022/12/05 16:41:55;;;;;;;;;;;;;;;;;;7371713;19;896;-67
2022/12/05 16:44:23;;;;;;;;;;;;;;;;;;7372648;19;810;-67
2022/12/05 16:46:51;;;;;;;;;;;;;;;;;;7373497;19;1781;-67
2022/12/05 16:49:19;;;;;;;;;;;;;;;;;;7369439;19;1851;-68
2022/12/05 16:51:47;;;;;;;;;;;;;;;;;;7372430;19;1807;-67
2022/12/05 16:54:15;;;;;;;;;;;;;;;;;;7374125;19;1796;-66
2022/12/05 16:56:44;;;;;;;;;;;;;;;;;;7369600;19;1243;-67
2022/12/05 16:59:12;;;;;;;;;;;;;;;;;;7371437;19;743;-66
2022/12/05 17:01:40;;;;;;;;;;;;;;;;;;7371782;19;859;-66
2022/12/05 17:04:08;;;;;;;;;;;;;;;;;;7371155;19;811;-66
2022/12/05 17:06:38;;;;;;;;;;;;;;;;;;7369260;19;1267;-67
2022/12/05 17:09:06;;;;;;;;;;;;;;;;;;7368836;19;1842;-66
2022/12/05 17:11:35;;;;;;;;;;;;;;;;;;7370801;19;807;-66
2022/12/05 17:14:03;;;;;;;;;;;;;;;;;;7369184;19;964;-66
2022/12/05 17:16:32;;;;;;;;;;;;;;;;;;7368402;19;1275;-66
2022/12/05 17:19:00;;;;;;;;;;;;;;;;;;7368921;19;800;-67
2022/12/05 17:21:28;;;;;;;;;;;;;;;;;;7371233;19;904;-67
2022/12/05 17:23:57;;;;;;;;;;;;;;;;;;7370828;19;807;-65
2022/12/05 17:26:25;;;;;;;;;;;;;;;;;;7368680;19;1354;-65
2022/12/05 17:28:53;;;;;;;;;;;;;;;;;;7367793;19;1849;-66
2022/12/05 17:31:21;;;;;;;;;;;;;;;;;;7369964;19;933;-67
2022/12/05 17:33:49;;;;;;;;;;;;;;;;;;7367787;19;956;-66